createdAt,value
2018-05-15T00:00:49.891Z,0.00
2018-05-15T00:01:50.118Z,0.00
2018-05-15T00:02:50.352Z,0.00
2018-05-15T00:03:50.585Z,0.00
2018-05-15T00:04:50.815Z,0.00
2018-05-15T00:05:51.049Z,0.00
2018-05-15T00:06:51.272Z,0.00
2018-05-15T00:07:51.503Z,0.00
2018-05-15T00:08:51.731Z,0.00
2018-05-15T00:09:51.960Z,0.00
2018-05-15T00:10:52.190Z,0.00
2018-05-15T00:11:52.420Z,0.00
2018-05-15T00:12:52.652Z,0.00
2018-05-15T00:13:52.877Z,0.00
2018-05-15T00:14:53.104Z,0.00
2018-05-15T00:15:53.336Z,0.00
2018-05-15T00:16:53.562Z,0.00
2018-05-15T00:17:53.795Z,0.00
2018-05-15T00:18:54.029Z,0.00
2018-05-15T00:19:54.255Z,0.00
2018-05-15T00:20:54.484Z,0.00
2018-05-15T00:21:54.715Z,0.00
2018-05-15T00:22:54.945Z,0.00
2018-05-15T00:23:55.174Z,0.00
2018-05-15T00:24:55.411Z,0.00
2018-05-15T00:25:55.636Z,0.00
2018-05-15T00:26:55.865Z,0.00
2018-05-15T00:27:56.093Z,0.00
2018-05-15T00:28:56.326Z,0.00
2018-05-15T00:29:56.556Z,0.00
2018-05-15T00:30:56.788Z,0.00
2018-05-15T00:31:57.018Z,0.00
2018-05-15T00:32:57.250Z,0.00
2018-05-15T00:33:57.514Z,0.00
2018-05-15T00:34:57.710Z,0.00
2018-05-15T00:35:57.938Z,0.00
2018-05-15T00:36:58.172Z,0.00
2018-05-15T00:37:58.398Z,0.00
2018-05-15T00:38:58.629Z,0.00
2018-05-15T00:39:58.857Z,0.00
2018-05-15T00:40:59.085Z,0.00
2018-05-15T00:41:59.315Z,0.00
2018-05-15T00:42:59.543Z,0.00
2018-05-15T00:43:59.773Z,0.00
2018-05-15T00:45:00.009Z,0.00
2018-05-15T00:46:00.230Z,0.00
2018-05-15T00:47:00.459Z,0.00
2018-05-15T00:48:00.690Z,0.00
2018-05-15T00:49:00.918Z,0.00
2018-05-15T00:50:01.154Z,0.00
2018-05-15T00:51:01.379Z,0.00
2018-05-15T00:52:01.609Z,0.00
2018-05-15T00:53:01.842Z,0.00
2018-05-15T00:54:02.070Z,0.00
2018-05-15T00:55:02.300Z,0.00
2018-05-15T00:56:02.528Z,0.00
2018-05-15T00:57:02.753Z,0.00
2018-05-15T00:58:02.983Z,0.00
2018-05-15T00:59:03.216Z,0.00
2018-05-15T01:00:03.443Z,0.00
2018-05-15T01:01:03.674Z,0.00
2018-05-15T01:02:03.906Z,0.00
2018-05-15T01:03:04.131Z,0.00
2018-05-15T01:04:04.360Z,0.00
2018-05-15T01:05:04.594Z,0.00
2018-05-15T01:06:04.823Z,0.00
2018-05-15T01:07:05.055Z,0.00
2018-05-15T01:08:05.282Z,0.00
2018-05-15T01:09:05.514Z,0.00
2018-05-15T01:10:05.742Z,0.00
2018-05-15T01:11:05.969Z,0.00
2018-05-15T01:12:06.199Z,0.00
2018-05-15T01:13:06.426Z,0.00
2018-05-15T01:14:06.661Z,0.00
2018-05-15T01:15:06.885Z,0.00
2018-05-15T01:16:07.112Z,0.00
2018-05-15T01:17:07.341Z,0.00
2018-05-15T01:18:07.572Z,0.00
2018-05-15T01:19:07.811Z,0.00
2018-05-15T01:20:08.025Z,0.00
2018-05-15T01:21:08.254Z,0.00
2018-05-15T01:22:08.483Z,0.00
2018-05-15T01:23:08.714Z,0.00
2018-05-15T01:24:08.942Z,0.00
2018-05-15T01:25:09.174Z,0.00
2018-05-15T01:26:09.399Z,0.00
2018-05-15T01:27:09.629Z,0.00
2018-05-15T01:28:09.859Z,0.00
2018-05-15T01:29:10.087Z,0.00
2018-05-15T01:30:10.312Z,0.00
2018-05-15T01:31:10.555Z,0.00
2018-05-15T01:32:10.770Z,0.00
2018-05-15T01:33:11.006Z,0.00
2018-05-15T01:34:11.230Z,0.00
2018-05-15T01:35:11.458Z,0.00
2018-05-15T01:36:11.689Z,0.00
2018-05-15T01:37:11.922Z,0.00
2018-05-15T01:38:12.145Z,0.00
2018-05-15T01:39:12.377Z,0.00
2018-05-15T01:40:12.607Z,0.00
2018-05-15T01:41:12.839Z,0.00
2018-05-15T01:42:13.065Z,0.00
2018-05-15T01:43:13.295Z,0.00
2018-05-15T01:44:13.520Z,0.00
2018-05-15T01:45:13.748Z,0.00
2018-05-15T01:46:13.976Z,0.00
2018-05-15T01:47:14.209Z,0.00
2018-05-15T01:48:14.439Z,0.00
2018-05-15T01:49:14.671Z,0.00
2018-05-15T01:50:14.890Z,0.00
2018-05-15T01:51:15.120Z,0.00
2018-05-15T01:52:15.364Z,0.00
2018-05-15T01:53:15.577Z,0.00
2018-05-15T01:54:15.805Z,0.00
2018-05-15T01:55:16.032Z,0.00
2018-05-15T01:56:16.262Z,0.00
2018-05-15T01:57:16.490Z,0.00
2018-05-15T01:58:16.708Z,0.00
2018-05-15T01:59:16.936Z,0.00
2018-05-15T02:00:17.165Z,0.00
2018-05-15T02:01:17.396Z,0.00
2018-05-15T02:02:17.630Z,0.00
2018-05-15T02:03:17.855Z,0.00
2018-05-15T02:04:18.088Z,0.00
2018-05-15T02:05:18.315Z,0.00
2018-05-15T02:06:18.556Z,0.00
2018-05-15T02:07:18.773Z,0.00
2018-05-15T02:08:19.002Z,0.00
2018-05-15T02:09:19.238Z,0.00
2018-05-15T02:10:19.465Z,0.00
2018-05-15T02:11:19.693Z,0.00
2018-05-15T02:12:19.931Z,0.00
2018-05-15T02:13:20.149Z,0.00
2018-05-15T02:14:20.379Z,0.00
2018-05-15T02:15:20.611Z,0.00
2018-05-15T02:16:20.838Z,0.00
2018-05-15T02:17:21.069Z,0.00
2018-05-15T02:18:21.297Z,0.00
2018-05-15T02:19:21.526Z,0.00
2018-05-15T02:20:21.753Z,0.00
2018-05-15T02:21:21.986Z,0.00
2018-05-15T02:22:22.215Z,0.00
2018-05-15T02:23:22.443Z,0.00
2018-05-15T02:24:22.673Z,0.00
2018-05-15T02:25:22.903Z,0.00
2018-05-15T02:26:23.134Z,0.00
2018-05-15T02:27:23.364Z,0.00
2018-05-15T02:28:23.589Z,0.00
2018-05-15T02:29:23.821Z,0.00
2018-05-15T02:30:24.091Z,0.00
2018-05-15T02:31:24.281Z,0.00
2018-05-15T02:32:24.515Z,0.00
2018-05-15T02:33:24.743Z,0.00
2018-05-15T02:34:24.975Z,0.00
2018-05-15T02:35:25.204Z,0.00
2018-05-15T02:36:25.432Z,0.00
2018-05-15T02:37:25.658Z,0.00
2018-05-15T02:38:25.885Z,0.00
2018-05-15T02:39:26.120Z,0.00
2018-05-15T02:40:26.347Z,0.00
2018-05-15T02:41:26.574Z,0.00
2018-05-15T02:42:26.807Z,0.00
2018-05-15T02:43:27.033Z,0.00
2018-05-15T02:44:27.263Z,0.00
2018-05-15T02:45:27.492Z,0.00
2018-05-15T02:46:27.727Z,4.00
2018-05-15T02:47:27.955Z,4.00
2018-05-15T02:48:28.188Z,4.00
2018-05-15T02:49:28.418Z,0.00
2018-05-15T02:50:28.646Z,0.00
2018-05-15T02:51:28.873Z,4.00
2018-05-15T02:52:29.103Z,4.00
2018-05-15T02:53:29.331Z,4.00
2018-05-15T02:54:29.562Z,4.00
2018-05-15T02:55:29.792Z,4.00
2018-05-15T02:56:30.021Z,4.00
2018-05-15T02:57:30.257Z,4.00
2018-05-15T02:58:30.474Z,4.00
2018-05-15T02:59:30.708Z,8.00
2018-05-15T03:00:30.934Z,8.00
2018-05-15T03:01:31.205Z,8.00
2018-05-15T03:02:31.381Z,12.00
2018-05-15T03:03:31.616Z,12.00
2018-05-15T03:04:31.844Z,12.00
2018-05-15T03:05:32.071Z,16.00
2018-05-15T03:06:32.303Z,16.00
2018-05-15T03:07:32.529Z,20.00
2018-05-15T03:08:32.758Z,24.00
2018-05-15T03:09:32.992Z,28.00
2018-05-15T03:10:33.220Z,28.00
2018-05-15T03:11:33.535Z,36.00
2018-05-15T03:12:33.679Z,40.00
2018-05-15T03:13:33.912Z,44.00
2018-05-15T03:14:34.159Z,48.00
2018-05-15T03:15:34.371Z,56.00
2018-05-15T03:16:34.612Z,64.00
2018-05-15T03:17:34.830Z,72.00
2018-05-15T03:18:35.145Z,80.00
2018-05-15T03:19:35.290Z,88.00
2018-05-15T03:20:35.522Z,100.00
2018-05-15T03:21:35.749Z,108.00
2018-05-15T03:22:35.979Z,120.00
2018-05-15T03:23:36.205Z,132.00
2018-05-15T03:24:36.436Z,144.00
2018-05-15T03:25:36.668Z,152.00
2018-05-15T03:26:36.890Z,164.00
2018-05-15T03:27:37.123Z,180.00
2018-05-15T03:28:37.351Z,192.00
2018-05-15T03:29:37.587Z,208.00
2018-05-15T03:30:37.812Z,220.00
2018-05-15T03:31:38.044Z,236.00
2018-05-15T03:32:38.268Z,252.00
2018-05-15T03:33:38.498Z,264.00
2018-05-15T03:34:38.745Z,284.00
2018-05-15T03:35:38.976Z,300.00
2018-05-15T03:36:39.208Z,320.00
2018-05-15T03:37:39.432Z,336.00
2018-05-15T03:38:39.661Z,356.00
2018-05-15T03:39:39.889Z,372.00
2018-05-15T03:40:40.118Z,396.00
2018-05-15T03:41:40.346Z,416.00
2018-05-15T03:42:40.589Z,436.00
2018-05-15T03:43:40.803Z,460.00
2018-05-15T03:44:41.038Z,488.00
2018-05-15T03:45:41.263Z,520.00
2018-05-15T03:46:41.500Z,548.00
2018-05-15T03:47:41.725Z,572.00
2018-05-15T03:48:41.959Z,608.00
2018-05-15T03:49:42.180Z,644.00
2018-05-15T03:50:42.416Z,684.00
2018-05-15T03:51:42.647Z,732.00
2018-05-15T03:52:42.875Z,788.00
2018-05-15T03:53:43.116Z,844.00
2018-05-15T03:54:43.334Z,904.00
2018-05-15T03:55:43.565Z,968.00
2018-05-15T03:56:43.799Z,1040.00
2018-05-15T03:57:44.032Z,1120.00
2018-05-15T03:58:44.263Z,1192.00
2018-05-15T03:59:44.489Z,1264.00
2018-05-15T04:00:44.722Z,1368.00
2018-05-15T04:01:44.949Z,1468.00
2018-05-15T04:02:45.178Z,1568.00
2018-05-15T04:03:45.408Z,1648.00
2018-05-15T04:04:45.636Z,1748.00
2018-05-15T04:05:45.865Z,1904.00
2018-05-15T04:06:46.103Z,2192.00
2018-05-15T04:07:46.332Z,2372.00
2018-05-15T04:08:46.663Z,2424.00
2018-05-15T04:09:46.785Z,2428.00
2018-05-15T04:10:47.027Z,2548.00
2018-05-15T04:11:47.243Z,3020.00
2018-05-15T04:12:47.471Z,3816.00
2018-05-15T04:13:47.702Z,4596.00
2018-05-15T04:14:47.932Z,5180.00
2018-05-15T04:15:48.166Z,5444.00
2018-05-15T04:16:48.393Z,5372.00
2018-05-15T04:17:48.624Z,5444.00
2018-05-15T04:18:48.859Z,5532.00
2018-05-15T04:19:49.085Z,5500.00
2018-05-15T04:20:49.323Z,5256.00
2018-05-15T04:21:49.546Z,5264.00
2018-05-15T04:22:49.777Z,5296.00
2018-05-15T04:23:50.009Z,5392.00
2018-05-15T04:24:50.231Z,5176.00
2018-05-15T04:25:50.471Z,4900.00
2018-05-15T04:26:50.702Z,4556.00
2018-05-15T04:27:50.937Z,4244.00
2018-05-15T04:28:51.156Z,3912.00
2018-05-15T04:29:51.388Z,3712.00
2018-05-15T04:30:51.618Z,3544.00
2018-05-15T04:31:51.851Z,3540.00
2018-05-15T04:32:52.080Z,3588.00
2018-05-15T04:33:52.309Z,3612.00
2018-05-15T04:34:52.545Z,3700.00
2018-05-15T04:35:52.775Z,3752.00
2018-05-15T04:36:53.011Z,3652.00
2018-05-15T04:37:53.234Z,3552.00
2018-05-15T04:38:53.465Z,3536.00
2018-05-15T04:39:53.697Z,3488.00
2018-05-15T04:40:53.935Z,3532.00
2018-05-15T04:41:54.167Z,3524.00
2018-05-15T04:42:54.399Z,3688.00
2018-05-15T04:43:54.753Z,3732.00
2018-05-15T04:44:54.852Z,3880.00
2018-05-15T04:45:55.086Z,4152.00
2018-05-15T04:46:55.315Z,4612.00
2018-05-15T04:47:55.546Z,4780.00
2018-05-15T04:48:55.777Z,4716.00
2018-05-15T04:49:56.008Z,4696.00
2018-05-15T04:50:56.238Z,4664.00
2018-05-15T04:51:56.467Z,4592.00
2018-05-15T04:52:56.700Z,4608.00
2018-05-15T04:53:56.925Z,4596.00
2018-05-15T04:54:57.155Z,4704.00
2018-05-15T04:55:57.378Z,4936.00
2018-05-15T04:56:57.625Z,5228.00
2018-05-15T04:57:57.854Z,5572.00
2018-05-15T04:58:58.082Z,5584.00
2018-05-15T04:59:58.316Z,5560.00
2018-05-15T05:00:58.546Z,5572.00
2018-05-15T05:01:58.841Z,5544.00
2018-05-15T05:02:59.007Z,5744.00
2018-05-15T05:03:59.238Z,5952.00
2018-05-15T05:04:59.469Z,6132.00
2018-05-15T05:05:59.698Z,6256.00
2018-05-15T05:06:59.927Z,6320.00
2018-05-15T05:08:00.156Z,6328.00
2018-05-15T05:09:00.389Z,6320.00
2018-05-15T05:10:00.609Z,6260.00
2018-05-15T05:11:00.840Z,6276.00
2018-05-15T05:12:01.069Z,6360.00
2018-05-15T05:13:01.296Z,6644.00
2018-05-15T05:14:01.529Z,6912.00
2018-05-15T05:15:01.758Z,7108.00
2018-05-15T05:16:01.987Z,7196.00
2018-05-15T05:17:02.222Z,7292.00
2018-05-15T05:18:02.510Z,7512.00
2018-05-15T05:19:02.685Z,7808.00
2018-05-15T05:20:02.919Z,8036.00
2018-05-15T05:21:03.225Z,8140.00
2018-05-15T05:22:03.381Z,8396.00
2018-05-15T05:23:03.616Z,8588.00
2018-05-15T05:24:03.843Z,8684.00
2018-05-15T05:25:04.072Z,8660.00
2018-05-15T05:26:04.300Z,8904.00
2018-05-15T05:27:04.576Z,9032.00
2018-05-15T05:28:04.768Z,8668.00
2018-05-15T05:29:05.006Z,8788.00
2018-05-15T05:30:05.230Z,9272.00
2018-05-15T05:31:05.459Z,9376.00
2018-05-15T05:32:05.698Z,9084.00
2018-05-15T05:33:05.918Z,9212.00
2018-05-15T05:34:06.172Z,9020.00
2018-05-15T05:35:06.396Z,9152.00
2018-05-15T05:36:06.633Z,9132.00
2018-05-15T05:37:06.864Z,8968.00
2018-05-15T05:38:07.100Z,8548.00
2018-05-15T05:39:07.338Z,8120.00
2018-05-15T05:40:07.597Z,7952.00
2018-05-15T05:41:07.798Z,8004.00
2018-05-15T05:42:08.034Z,7888.00
2018-05-15T05:43:08.269Z,8024.00
2018-05-15T05:44:08.500Z,7736.00
2018-05-15T05:45:08.734Z,7592.00
2018-05-15T05:46:08.968Z,7432.00
2018-05-15T05:47:09.197Z,7120.00
2018-05-15T05:48:09.433Z,6880.00
2018-05-15T05:49:09.664Z,6776.00
2018-05-15T05:50:09.907Z,6640.00
2018-05-15T05:51:10.135Z,6596.00
2018-05-15T05:52:10.369Z,6556.00
2018-05-15T05:53:10.606Z,6384.00
2018-05-15T05:54:10.834Z,6272.00
2018-05-15T05:55:11.066Z,6336.00
2018-05-15T05:56:11.299Z,6392.00
2018-05-15T05:57:11.534Z,6372.00
2018-05-15T05:58:11.766Z,6332.00
2018-05-15T05:59:11.989Z,6332.00
2018-05-15T06:00:12.219Z,6472.00
2018-05-15T06:01:12.455Z,6404.00
2018-05-15T06:02:12.685Z,6648.00
2018-05-15T06:03:12.922Z,6716.00
2018-05-15T06:04:13.151Z,7088.00
2018-05-15T06:05:13.385Z,7284.00
2018-05-15T06:06:13.621Z,7152.00
2018-05-15T06:07:13.851Z,7412.00
2018-05-15T06:08:14.090Z,7968.00
2018-05-15T06:09:14.304Z,8084.00
2018-05-15T06:10:14.540Z,7952.00
2018-05-15T06:11:14.777Z,8208.00
2018-05-15T06:12:15.005Z,8256.00
2018-05-15T06:13:15.241Z,8748.00
2018-05-15T06:14:15.477Z,8232.00
2018-05-15T06:15:15.695Z,7960.00
2018-05-15T06:16:15.943Z,7768.00
2018-05-15T06:17:16.171Z,7608.00
2018-05-15T06:18:16.402Z,7492.00
2018-05-15T06:19:16.650Z,7568.00
2018-05-15T06:20:16.855Z,7472.00
2018-05-15T06:21:17.085Z,7224.00
2018-05-15T06:22:17.318Z,7036.00
2018-05-15T06:23:17.554Z,6952.00
2018-05-15T06:24:17.781Z,6780.00
2018-05-15T06:25:18.011Z,6508.00
2018-05-15T06:26:18.246Z,6428.00
2018-05-15T06:27:18.483Z,6540.00
2018-05-15T06:28:18.721Z,6648.00
2018-05-15T06:29:18.939Z,6744.00
2018-05-15T06:30:19.175Z,6820.00
2018-05-15T06:31:19.409Z,6936.00
2018-05-15T06:32:19.656Z,6916.00
2018-05-15T06:33:19.885Z,7004.00
2018-05-15T06:34:20.110Z,7152.00
2018-05-15T06:35:20.342Z,7352.00
2018-05-15T06:36:20.576Z,7428.00
2018-05-15T06:37:20.809Z,7640.00
2018-05-15T06:38:21.036Z,7688.00
2018-05-15T06:39:21.264Z,7716.00
2018-05-15T06:40:21.497Z,7772.00
2018-05-15T06:41:21.725Z,7792.00
2018-05-15T06:42:21.959Z,7960.00
2018-05-15T06:43:22.198Z,8036.00
2018-05-15T06:44:22.424Z,8096.00
2018-05-15T06:45:22.651Z,8604.00
2018-05-15T06:46:22.956Z,8240.00
2018-05-15T06:47:23.110Z,8796.00
2018-05-15T06:48:23.339Z,8680.00
2018-05-15T06:49:23.571Z,9032.00
2018-05-15T06:50:23.800Z,9032.00
2018-05-15T06:51:24.032Z,9364.00
2018-05-15T06:52:24.266Z,10636.00
2018-05-15T06:53:24.497Z,11296.00
2018-05-15T06:54:24.725Z,10316.00
2018-05-15T06:55:24.958Z,10948.00
2018-05-15T06:56:25.189Z,10708.00
2018-05-15T06:57:25.424Z,10308.00
2018-05-15T06:58:25.656Z,10148.00
2018-05-15T06:59:25.886Z,8576.00
2018-05-15T07:00:26.119Z,9728.00
2018-05-15T07:01:26.353Z,9764.00
2018-05-15T07:02:26.591Z,9708.00
2018-05-15T07:03:26.826Z,9624.00
2018-05-15T07:04:27.056Z,9524.00
2018-05-15T07:05:27.288Z,9408.00
2018-05-15T07:06:27.521Z,9344.00
2018-05-15T07:07:27.753Z,9336.00
2018-05-15T07:08:27.988Z,9332.00
2018-05-15T07:09:28.226Z,9244.00
2018-05-15T07:10:28.460Z,9240.00
2018-05-15T07:11:28.693Z,9148.00
2018-05-15T07:12:28.937Z,9016.00
2018-05-15T07:13:29.162Z,8192.00
2018-05-15T07:14:29.396Z,8752.00
2018-05-15T07:15:29.633Z,8856.00
2018-05-15T07:16:29.860Z,8472.00
2018-05-15T07:17:30.101Z,8276.00
2018-05-15T07:18:30.329Z,8864.00
2018-05-15T07:19:30.574Z,9204.00
2018-05-15T07:20:30.808Z,8640.00
2018-05-15T07:21:31.040Z,7888.00
2018-05-15T07:22:31.274Z,8096.00
2018-05-15T07:23:31.507Z,8364.00
2018-05-15T07:24:31.739Z,8420.00
2018-05-15T07:25:31.972Z,8528.00
2018-05-15T07:26:32.207Z,9212.00
2018-05-15T07:27:32.436Z,9140.00
2018-05-15T07:28:32.675Z,8876.00
2018-05-15T07:29:32.911Z,8672.00
2018-05-15T07:30:33.144Z,8444.00
2018-05-15T07:31:33.381Z,8980.00
2018-05-15T07:32:33.613Z,9264.00
2018-05-15T07:33:33.844Z,9376.00
2018-05-15T07:34:34.080Z,8956.00
2018-05-15T07:35:34.317Z,8624.00
2018-05-15T07:36:34.551Z,8536.00
2018-05-15T07:37:34.788Z,8760.00
2018-05-15T07:38:35.021Z,9280.00
2018-05-15T07:39:35.259Z,9368.00
2018-05-15T07:40:35.494Z,9424.00
2018-05-15T07:41:35.726Z,9100.00
2018-05-15T07:42:35.962Z,9168.00
2018-05-15T07:43:36.199Z,8996.00
2018-05-15T07:44:36.426Z,9076.00
2018-05-15T07:45:36.657Z,8856.00
2018-05-15T07:46:36.895Z,8560.00
2018-05-15T07:47:37.128Z,8580.00
2018-05-15T07:48:37.361Z,7984.00
2018-05-15T07:49:37.600Z,7812.00
2018-05-15T07:50:37.833Z,7412.00
2018-05-15T07:51:38.076Z,7820.00
2018-05-15T07:52:38.306Z,8196.00
2018-05-15T07:53:38.636Z,7856.00
2018-05-15T07:54:38.780Z,7504.00
2018-05-15T07:55:39.014Z,6868.00
2018-05-15T07:56:39.251Z,7676.00
2018-05-15T07:57:39.481Z,8828.00
2018-05-15T07:58:39.720Z,8708.00
2018-05-15T07:59:39.953Z,7724.00
2018-05-15T08:00:40.187Z,8236.00
2018-05-15T08:01:40.423Z,7260.00
2018-05-15T08:02:40.657Z,7340.00
2018-05-15T08:03:40.895Z,8216.00
2018-05-15T08:04:41.115Z,7388.00
2018-05-15T08:05:41.370Z,6556.00
2018-05-15T08:06:41.603Z,6796.00
2018-05-15T08:07:41.842Z,7180.00
2018-05-15T08:08:42.085Z,8296.00
2018-05-15T08:09:42.314Z,8316.00
2018-05-15T08:10:42.543Z,9096.00
2018-05-15T08:11:42.777Z,8432.00
2018-05-15T08:12:43.009Z,7412.00
2018-05-15T08:13:43.244Z,7168.00
2018-05-15T08:14:43.478Z,7372.00
2018-05-15T08:15:43.717Z,7700.00
2018-05-15T08:16:43.947Z,7808.00
2018-05-15T08:17:44.184Z,7120.00
2018-05-15T08:18:44.417Z,7376.00
2018-05-15T08:19:44.657Z,8564.00
2018-05-15T08:20:44.888Z,8780.00
2018-05-15T08:21:45.122Z,9016.00
2018-05-15T08:22:45.359Z,9464.00
2018-05-15T08:23:45.586Z,9608.00
2018-05-15T08:24:45.824Z,9628.00
2018-05-15T08:25:46.057Z,10096.00
2018-05-15T08:26:46.292Z,10020.00
2018-05-15T08:27:46.533Z,9860.00
2018-05-15T08:28:46.768Z,10016.00
2018-05-15T08:29:47.004Z,10188.00
2018-05-15T08:30:47.266Z,10332.00
2018-05-15T08:31:47.470Z,10304.00
2018-05-15T08:32:47.700Z,10016.00
2018-05-15T08:33:47.933Z,9984.00
2018-05-15T08:34:48.166Z,9780.00
2018-05-15T08:35:48.401Z,9752.00
2018-05-15T08:36:48.637Z,9964.00
2018-05-15T08:37:48.868Z,9888.00
2018-05-15T08:38:49.103Z,9820.00
2018-05-15T08:39:49.336Z,9784.00
2018-05-15T08:40:49.573Z,9736.00
2018-05-15T08:41:49.808Z,9588.00
2018-05-15T08:42:50.045Z,9432.00
2018-05-15T08:43:50.277Z,9260.00
2018-05-15T08:44:50.510Z,9168.00
2018-05-15T08:45:50.742Z,9076.00
2018-05-15T08:46:50.975Z,9024.00
2018-05-15T08:47:51.209Z,8788.00
2018-05-15T08:48:51.445Z,8572.00
2018-05-15T08:49:51.680Z,8464.00
2018-05-15T08:50:51.911Z,8520.00
2018-05-15T08:51:52.141Z,8516.00
2018-05-15T08:52:52.374Z,8488.00
2018-05-15T08:53:52.606Z,8600.00
2018-05-15T08:54:52.840Z,8812.00
2018-05-15T08:55:53.077Z,9024.00
2018-05-15T08:56:53.312Z,9124.00
2018-05-15T08:57:53.550Z,9168.00
2018-05-15T08:58:53.785Z,8988.00
2018-05-15T08:59:54.018Z,8792.00
2018-05-15T09:00:54.257Z,8788.00
2018-05-15T09:01:54.488Z,8808.00
2018-05-15T09:02:54.725Z,8788.00
2018-05-15T09:03:54.957Z,8852.00
2018-05-15T09:04:55.195Z,8884.00
2018-05-15T09:05:55.425Z,8960.00
2018-05-15T09:06:55.658Z,8964.00
2018-05-15T09:07:55.892Z,8864.00
2018-05-15T09:08:56.126Z,8800.00
2018-05-15T09:09:56.361Z,8700.00
2018-05-15T09:10:56.594Z,8644.00
2018-05-15T09:11:56.829Z,8540.00
2018-05-15T09:12:57.063Z,8624.00
2018-05-15T09:13:57.300Z,8856.00
2018-05-15T09:14:57.533Z,8700.00
2018-05-15T09:15:57.768Z,8568.00
2018-05-15T09:16:58.003Z,8536.00
2018-05-15T09:17:58.238Z,9152.00
2018-05-15T09:18:58.503Z,9304.00
2018-05-15T09:19:58.713Z,9232.00
2018-05-15T09:20:58.951Z,9336.00
2018-05-15T09:21:59.181Z,9548.00
2018-05-15T09:22:59.417Z,9716.00
2018-05-15T09:23:59.657Z,9848.00
2018-05-15T09:24:59.892Z,9872.00
2018-05-15T09:26:00.127Z,8068.00
2018-05-15T09:27:00.364Z,9984.00
2018-05-15T09:28:00.596Z,9960.00
2018-05-15T09:29:00.838Z,9624.00
2018-05-15T09:30:01.997Z,9336.00
2018-05-15T09:31:01.353Z,10072.00
2018-05-15T09:32:01.590Z,10616.00
2018-05-15T09:33:01.824Z,10968.00
2018-05-15T09:34:02.057Z,10884.00
2018-05-15T09:35:02.293Z,10980.00
2018-05-15T09:36:02.531Z,11040.00
2018-05-15T09:37:02.763Z,10972.00
2018-05-15T09:38:02.997Z,11004.00
2018-05-15T09:39:03.232Z,10768.00
2018-05-15T09:40:03.469Z,11596.00
2018-05-15T09:41:03.706Z,11328.00
2018-05-15T09:42:03.935Z,10204.00
2018-05-15T09:43:04.177Z,11432.00
2018-05-15T09:44:04.404Z,11536.00
2018-05-15T09:45:04.640Z,11640.00
2018-05-15T09:46:04.874Z,11776.00
2018-05-15T09:47:05.111Z,11756.00
2018-05-15T09:48:05.350Z,11420.00
2018-05-15T09:49:05.589Z,9484.00
2018-05-15T09:50:05.821Z,9284.00
2018-05-15T09:51:06.063Z,9312.00
2018-05-15T09:52:06.298Z,9872.00
2018-05-15T09:53:06.532Z,11240.00
2018-05-15T09:54:06.766Z,11276.00
2018-05-15T09:55:07.006Z,11028.00
2018-05-15T09:56:07.246Z,10720.00
2018-05-15T09:57:07.475Z,10540.00
2018-05-15T09:58:07.714Z,9856.00
2018-05-15T09:59:07.954Z,10824.00
2018-05-15T10:00:08.189Z,10808.00
2018-05-15T10:01:08.431Z,9864.00
2018-05-15T10:02:08.673Z,10708.00
2018-05-15T10:03:08.904Z,10728.00
2018-05-15T10:04:10.004Z,10952.00
2018-05-15T10:05:09.371Z,10944.00
2018-05-15T10:06:09.599Z,10744.00
2018-05-15T10:07:09.830Z,10636.00
2018-05-15T10:08:10.184Z,11756.00
2018-05-15T10:09:10.304Z,12292.00
2018-05-15T10:10:10.538Z,11344.00
2018-05-15T10:11:10.779Z,12528.00
2018-05-15T10:12:11.011Z,12264.00
2018-05-15T10:13:11.248Z,12412.00
2018-05-15T10:14:11.502Z,12164.00
2018-05-15T10:15:11.717Z,11248.00
2018-05-15T10:16:11.965Z,9460.00
2018-05-15T10:17:12.194Z,9076.00
2018-05-15T10:18:12.431Z,8580.00
2018-05-15T10:19:12.661Z,9336.00
2018-05-15T10:20:12.903Z,9388.00
2018-05-15T10:21:13.138Z,8228.00
2018-05-15T10:22:13.372Z,9056.00
2018-05-15T10:23:13.609Z,8980.00
2018-05-15T10:24:13.852Z,9188.00
2018-05-15T10:25:14.088Z,8960.00
2018-05-15T10:26:14.368Z,9364.00
2018-05-15T10:27:14.565Z,9592.00
2018-05-15T10:28:14.799Z,9876.00
2018-05-15T10:29:15.033Z,10216.00
2018-05-15T10:30:15.269Z,11196.00
2018-05-15T10:31:15.504Z,10728.00
2018-05-15T10:32:15.801Z,12564.00
2018-05-15T10:33:15.984Z,12744.00
2018-05-15T10:34:16.216Z,12900.00
2018-05-15T10:35:16.454Z,13136.00
2018-05-15T10:36:16.710Z,11536.00
2018-05-15T10:37:16.994Z,10824.00
2018-05-15T10:38:17.166Z,10384.00
2018-05-15T10:39:17.399Z,10056.00
2018-05-15T10:40:17.634Z,9916.00
2018-05-15T10:41:17.875Z,9764.00
2018-05-15T10:42:18.110Z,9612.00
2018-05-15T10:43:18.338Z,9548.00
2018-05-15T10:44:18.578Z,9552.00
2018-05-15T10:45:18.816Z,9572.00
2018-05-15T10:46:19.053Z,9536.00
2018-05-15T10:47:19.288Z,9564.00
2018-05-15T10:48:19.521Z,9628.00
2018-05-15T10:49:19.759Z,9668.00
2018-05-15T10:50:19.994Z,9660.00
2018-05-15T10:51:20.225Z,9692.00
2018-05-15T10:52:20.464Z,9724.00
2018-05-15T10:53:20.701Z,9764.00
2018-05-15T10:54:20.939Z,9784.00
2018-05-15T10:55:21.254Z,10488.00
2018-05-15T10:56:21.409Z,11084.00
2018-05-15T10:57:21.640Z,10644.00
2018-05-15T10:58:21.870Z,10476.00
2018-05-15T10:59:22.109Z,10840.00
2018-05-15T11:00:22.337Z,10992.00
2018-05-15T11:01:22.570Z,11316.00
2018-05-15T11:02:22.808Z,11228.00
2018-05-15T11:03:23.041Z,11356.00
2018-05-15T11:04:23.278Z,11616.00
2018-05-15T11:05:23.514Z,11568.00
2018-05-15T11:06:23.755Z,9428.00
2018-05-15T11:07:23.992Z,8684.00
2018-05-15T11:08:24.225Z,7920.00
2018-05-15T11:09:24.463Z,8304.00
2018-05-15T11:10:24.703Z,6524.00
2018-05-15T11:11:24.934Z,5892.00
2018-05-15T11:12:25.171Z,5040.00
2018-05-15T11:13:25.405Z,4572.00
2018-05-15T11:14:25.685Z,4328.00
2018-05-15T11:15:25.880Z,4188.00
2018-05-15T11:16:26.121Z,4188.00
2018-05-15T11:17:26.356Z,4212.00
2018-05-15T11:18:26.592Z,4024.00
2018-05-15T11:19:26.826Z,3788.00
2018-05-15T11:20:27.062Z,3668.00
2018-05-15T11:21:27.297Z,3632.00
2018-05-15T11:22:27.534Z,3652.00
2018-05-15T11:23:27.770Z,3780.00
2018-05-15T11:24:28.071Z,3972.00
2018-05-15T11:25:28.229Z,4156.00
2018-05-15T11:26:28.483Z,4292.00
2018-05-15T11:27:28.716Z,4356.00
2018-05-15T11:28:28.960Z,4424.00
2018-05-15T11:29:29.182Z,4528.00
2018-05-15T11:30:29.458Z,4528.00
2018-05-15T11:31:29.653Z,4444.00
2018-05-15T11:32:29.890Z,4272.00
2018-05-15T11:33:30.125Z,4024.00
2018-05-15T11:34:30.356Z,3772.00
2018-05-15T11:35:30.593Z,3620.00
2018-05-15T11:36:30.828Z,3684.00
2018-05-15T11:37:31.071Z,3860.00
2018-05-15T11:38:31.291Z,3980.00
2018-05-15T11:39:31.526Z,4240.00
2018-05-15T11:40:31.758Z,4636.00
2018-05-15T11:41:32.005Z,5076.00
2018-05-15T11:42:32.228Z,5472.00
2018-05-15T11:43:32.464Z,5948.00
2018-05-15T11:44:32.697Z,6268.00
2018-05-15T11:45:32.935Z,6528.00
2018-05-15T11:46:33.169Z,6868.00
2018-05-15T11:47:33.555Z,7160.00
2018-05-15T11:48:34.540Z,7368.00
2018-05-15T11:49:34.507Z,7560.00
2018-05-15T11:50:35.111Z,7956.00
2018-05-15T11:51:35.147Z,8328.00
2018-05-15T11:52:35.143Z,8520.00
2018-05-15T11:53:34.804Z,8828.00
2018-05-15T11:54:35.033Z,9080.00
2018-05-15T11:55:42.417Z,9168.00
2018-05-15T11:56:35.536Z,9312.00
2018-05-15T11:57:35.733Z,9556.00
2018-05-15T11:58:35.969Z,9948.00
2018-05-15T11:59:36.205Z,10376.00
2018-05-15T12:00:36.441Z,10740.00
2018-05-15T12:01:36.677Z,11184.00
2018-05-15T12:02:36.952Z,10172.00
2018-05-15T12:03:37.208Z,10800.00
2018-05-15T12:04:37.414Z,10760.00
2018-05-15T12:05:37.648Z,10824.00
2018-05-15T12:06:37.966Z,11140.00
2018-05-15T12:07:38.120Z,11420.00
2018-05-15T12:08:38.354Z,9832.00
2018-05-15T12:09:38.588Z,10008.00
2018-05-15T12:10:38.849Z,11032.00
2018-05-15T12:11:39.062Z,9428.00
2018-05-15T12:12:39.299Z,10644.00
2018-05-15T12:13:39.550Z,10256.00
2018-05-15T12:14:39.790Z,8340.00
2018-05-15T12:15:40.025Z,8016.00
2018-05-15T12:16:40.257Z,7748.00
2018-05-15T12:17:40.494Z,7608.00
2018-05-15T12:18:40.730Z,7464.00
2018-05-15T12:19:40.967Z,7308.00
2018-05-15T12:20:41.211Z,7260.00
2018-05-15T12:21:41.447Z,7300.00
2018-05-15T12:22:41.682Z,7472.00
2018-05-15T12:23:41.930Z,7736.00
2018-05-15T12:24:42.154Z,7960.00